createdAt,value
2023-03-30T00:00:45.500Z,1005.47
2023-03-30T00:01:45.452Z,1005.48
2023-03-30T00:02:45.590Z,1005.38
2023-03-30T00:03:45.862Z,1005.46
2023-03-30T00:04:45.537Z,1005.36
2023-03-30T00:05:45.424Z,1005.43
2023-03-30T00:06:45.375Z,1005.42
2023-03-30T00:07:45.400Z,1005.41
2023-03-30T00:08:45.363Z,1005.36
2023-03-30T00:09:45.366Z,1005.36
2023-03-30T00:10:45.352Z,1005.33
2023-03-30T00:11:45.345Z,1005.33
2023-03-30T00:12:45.341Z,1005.32
2023-03-30T00:13:45.447Z,1005.29
2023-03-30T00:14:45.267Z,1005.29
2023-03-30T00:15:45.290Z,1005.26
2023-03-30T00:16:45.321Z,1005.27
2023-03-30T00:17:45.276Z,1005.25
2023-03-30T00:18:45.288Z,1005.15
2023-03-30T00:19:45.224Z,1005.15
2023-03-30T00:20:45.271Z,1005.17
2023-03-30T00:21:45.232Z,1005.18
2023-03-30T00:22:45.210Z,1005.21
2023-03-30T00:23:45.217Z,1005.24
2023-03-30T00:24:45.175Z,1005.23
2023-03-30T00:25:45.146Z,1005.22
2023-03-30T00:26:45.157Z,1005.19
2023-03-30T00:27:45.115Z,1005.20
2023-03-30T00:28:45.119Z,1005.25
2023-03-30T00:29:45.090Z,1005.17
2023-03-30T00:30:45.091Z,1005.17
2023-03-30T00:31:45.184Z,1005.15
2023-03-30T00:32:45.078Z,1005.16
2023-03-30T00:33:47.082Z,1005.14
2023-03-30T00:34:45.037Z,1005.26
2023-03-30T00:35:45.044Z,1005.27
2023-03-30T00:36:45.068Z,1005.29
2023-03-30T00:37:44.968Z,1005.23
2023-03-30T00:38:44.969Z,1005.26
2023-03-30T00:39:44.954Z,1005.35
2023-03-30T00:40:44.936Z,1005.41
2023-03-30T00:41:44.944Z,1005.40
2023-03-30T00:42:44.926Z,1005.30
2023-03-30T00:43:44.945Z,1005.29
2023-03-30T00:44:44.911Z,1005.30
2023-03-30T00:45:44.932Z,1005.27
2023-03-30T00:46:44.897Z,1005.25
2023-03-30T00:47:44.928Z,1005.16
2023-03-30T00:48:44.865Z,1005.15
2023-03-30T00:49:44.831Z,1005.16
2023-03-30T00:50:44.851Z,1005.11
2023-03-30T00:51:44.844Z,1005.09
2023-03-30T00:52:44.787Z,1005.04
2023-03-30T00:53:44.756Z,1004.96
2023-03-30T00:54:44.743Z,1004.91
2023-03-30T00:55:44.763Z,1004.86
2023-03-30T00:56:44.793Z,1004.81
2023-03-30T00:57:44.698Z,1004.75
2023-03-30T00:58:44.839Z,1004.72
2023-03-30T00:59:44.681Z,1004.70
2023-03-30T01:00:44.688Z,1004.73
2023-03-30T01:01:44.750Z,1004.69
2023-03-30T01:02:44.747Z,1004.67
2023-03-30T01:03:44.754Z,1004.64
2023-03-30T01:04:44.632Z,1004.58
2023-03-30T01:05:44.592Z,1004.55
2023-03-30T01:06:44.651Z,1004.61
2023-03-30T01:07:44.606Z,1004.63
2023-03-30T01:08:44.604Z,1004.66
2023-03-30T01:09:44.615Z,1004.70
2023-03-30T01:10:44.547Z,1004.75
2023-03-30T01:11:44.575Z,1004.74
2023-03-30T01:12:44.515Z,1004.71
2023-03-30T01:13:44.610Z,1004.69
2023-03-30T01:14:44.512Z,1004.61
2023-03-30T01:15:44.521Z,1004.64
2023-03-30T01:16:44.470Z,1004.58
2023-03-30T01:17:44.513Z,1004.56
2023-03-30T01:18:44.443Z,1004.55
2023-03-30T01:19:44.430Z,1004.59
2023-03-30T01:20:44.447Z,1004.65
2023-03-30T01:21:44.412Z,1004.71
2023-03-30T01:22:44.399Z,1004.72
2023-03-30T01:23:44.453Z,1004.77
2023-03-30T01:24:44.388Z,1004.77
2023-03-30T01:25:44.414Z,1004.77
2023-03-30T01:26:44.328Z,1004.71
2023-03-30T01:27:44.309Z,1004.75
2023-03-30T01:28:44.318Z,1004.74
2023-03-30T01:29:44.299Z,1004.76
2023-03-30T01:30:44.304Z,1004.84
2023-03-30T01:31:44.284Z,1004.91
2023-03-30T01:32:44.294Z,1004.86
2023-03-30T01:33:44.293Z,1004.88
2023-03-30T01:34:44.247Z,1004.87
2023-03-30T01:35:44.322Z,1004.85
2023-03-30T01:36:44.195Z,1004.88
2023-03-30T01:37:44.239Z,1004.81
2023-03-30T01:38:44.176Z,1004.85
2023-03-30T01:39:44.199Z,1004.72
2023-03-30T01:40:44.208Z,1004.73
2023-03-30T01:41:44.143Z,1004.83
2023-03-30T01:42:44.178Z,1004.78
2023-03-30T01:43:44.248Z,1004.82
2023-03-30T01:44:44.127Z,1004.72
2023-03-30T01:45:44.124Z,1004.67
2023-03-30T01:46:44.114Z,1004.71
2023-03-30T01:47:44.084Z,1004.82
2023-03-30T01:48:44.091Z,1004.77
2023-03-30T01:49:44.008Z,1004.77
2023-03-30T01:50:44.030Z,1004.80
2023-03-30T01:51:43.992Z,1004.75
2023-03-30T01:52:43.985Z,1004.80
2023-03-30T01:53:44.023Z,1004.82
2023-03-30T01:54:43.990Z,1004.80
2023-03-30T01:55:43.956Z,1004.93
2023-03-30T01:56:44.011Z,1004.87
2023-03-30T01:57:43.940Z,1004.86
2023-03-30T01:58:43.922Z,1004.84
2023-03-30T01:59:43.892Z,1004.77
2023-03-30T02:00:43.902Z,1004.78
2023-03-30T02:01:43.893Z,1004.77
2023-03-30T02:02:44.077Z,1004.76
2023-03-30T02:03:43.973Z,1004.69
2023-03-30T02:04:43.863Z,1004.71
2023-03-30T02:05:43.829Z,1004.65
2023-03-30T02:06:43.832Z,1004.72
2023-03-30T02:07:43.800Z,1004.77
2023-03-30T02:08:43.785Z,1004.80
2023-03-30T02:09:43.768Z,1004.82
2023-03-30T02:10:43.749Z,1004.78
2023-03-30T02:11:43.724Z,1004.73
2023-03-30T02:12:43.753Z,1004.72
2023-03-30T02:13:43.759Z,1004.69
2023-03-30T02:14:43.731Z,1004.66
2023-03-30T02:15:43.698Z,1004.64
2023-03-30T02:16:43.724Z,1004.57
2023-03-30T02:17:43.726Z,1004.61
2023-03-30T02:18:43.676Z,1004.49
2023-03-30T02:19:43.640Z,1004.46
2023-03-30T02:20:43.614Z,1004.49
2023-03-30T02:21:43.609Z,1004.49
2023-03-30T02:22:43.593Z,1004.52
2023-03-30T02:23:43.625Z,1004.41
2023-03-30T02:24:43.597Z,1004.40
2023-03-30T02:25:43.620Z,1004.52
2023-03-30T02:26:43.532Z,1004.31
2023-03-30T02:27:43.546Z,1004.32
2023-03-30T02:28:43.540Z,1004.21
2023-03-30T02:29:43.501Z,1004.16
2023-03-30T02:30:43.505Z,1004.14
2023-03-30T02:31:43.591Z,1004.18
2023-03-30T02:32:43.532Z,1004.23
2023-03-30T02:33:43.489Z,1004.18
2023-03-30T02:34:43.469Z,1004.13
2023-03-30T02:35:43.433Z,1004.05
2023-03-30T02:36:43.434Z,1004.03
2023-03-30T02:37:43.443Z,1003.98
2023-03-30T02:38:43.401Z,1003.98
2023-03-30T02:39:43.402Z,1003.91
2023-03-30T02:40:43.385Z,1003.76
2023-03-30T02:41:43.346Z,1003.51
2023-03-30T02:42:43.360Z,1003.46
2023-03-30T02:43:43.344Z,1003.55
2023-03-30T02:44:43.326Z,1003.68
2023-03-30T02:45:43.302Z,1003.76
2023-03-30T02:46:43.273Z,1003.95
2023-03-30T02:47:43.289Z,1004.01
2023-03-30T02:48:43.290Z,1004.10
2023-03-30T02:49:43.255Z,1004.09
2023-03-30T02:50:43.219Z,1004.10
2023-03-30T02:51:43.212Z,1004.14
2023-03-30T02:52:43.212Z,1004.09
2023-03-30T02:53:43.263Z,1004.06
2023-03-30T02:54:43.172Z,1004.04
2023-03-30T02:55:43.168Z,1004.00
2023-03-30T02:56:43.207Z,1003.94
2023-03-30T02:57:43.147Z,1003.87
2023-03-30T02:58:43.113Z,1003.88
2023-03-30T02:59:43.151Z,1003.96
2023-03-30T03:00:43.136Z,1003.91
2023-03-30T03:01:43.133Z,1003.89
2023-03-30T03:02:43.180Z,1003.84
2023-03-30T03:03:43.223Z,1003.85
2023-03-30T03:04:43.042Z,1003.80
2023-03-30T03:05:43.068Z,1003.84
2023-03-30T03:06:43.033Z,1003.82
2023-03-30T03:07:43.010Z,1003.79
2023-03-30T03:08:43.022Z,1003.84
2023-03-30T03:09:43.001Z,1003.78
2023-03-30T03:10:43.000Z,1003.74
2023-03-30T03:11:42.932Z,1003.75
2023-03-30T03:12:42.938Z,1003.69
2023-03-30T03:13:42.937Z,1003.60
2023-03-30T03:14:42.905Z,1003.69
2023-03-30T03:15:42.905Z,1003.64
2023-03-30T03:16:42.998Z,1003.73
2023-03-30T03:17:42.928Z,1003.84
2023-03-30T03:18:42.880Z,1003.83
2023-03-30T03:19:42.831Z,1003.79
2023-03-30T03:20:42.888Z,1003.82
2023-03-30T03:21:42.865Z,1003.80
2023-03-30T03:22:42.814Z,1003.77
2023-03-30T03:23:42.827Z,1003.76
2023-03-30T03:24:42.774Z,1003.69
2023-03-30T03:25:42.790Z,1003.74
2023-03-30T03:26:42.766Z,1003.73
2023-03-30T03:27:42.730Z,1003.74
2023-03-30T03:28:42.767Z,1003.74
2023-03-30T03:29:42.771Z,1003.69
2023-03-30T03:30:42.758Z,1003.69
2023-03-30T03:31:42.845Z,1003.70
2023-03-30T03:32:42.895Z,1003.77
2023-03-30T03:33:42.677Z,1003.79
2023-03-30T03:34:42.666Z,1003.77
2023-03-30T03:35:42.661Z,1003.74
2023-03-30T03:36:42.673Z,1003.73
2023-03-30T03:37:42.621Z,1003.72
2023-03-30T03:38:42.640Z,1003.65
2023-03-30T03:39:42.641Z,1003.59
2023-03-30T03:40:42.574Z,1003.65
2023-03-30T03:41:42.570Z,1003.71
2023-03-30T03:42:42.546Z,1003.75
2023-03-30T03:43:42.557Z,1003.70
2023-03-30T03:44:42.601Z,1003.68
2023-03-30T03:45:42.499Z,1003.63
2023-03-30T03:46:42.568Z,1003.71
2023-03-30T03:47:42.520Z,1003.72
2023-03-30T03:48:42.480Z,1003.72
2023-03-30T03:49:42.453Z,1003.59
2023-03-30T03:50:42.520Z,1003.65
2023-03-30T03:51:42.417Z,1003.68
2023-03-30T03:52:42.436Z,1003.71
2023-03-30T03:53:42.441Z,1003.71
2023-03-30T03:54:42.379Z,1003.63
2023-03-30T03:55:42.375Z,1003.57
2023-03-30T03:56:42.405Z,1003.54
2023-03-30T03:57:42.337Z,1003.50
2023-03-30T03:58:42.370Z,1003.41
2023-03-30T03:59:42.309Z,1003.51
2023-03-30T04:00:42.392Z,1003.52
2023-03-30T04:01:42.335Z,1003.50
2023-03-30T04:02:42.453Z,1003.52
2023-03-30T04:03:42.290Z,1003.48
2023-03-30T04:04:42.321Z,1003.49
2023-03-30T04:05:42.238Z,1003.47
2023-03-30T04:06:42.257Z,1003.47
2023-03-30T04:07:42.234Z,1003.51
2023-03-30T04:08:42.249Z,1003.46
2023-03-30T04:09:42.184Z,1003.38
2023-03-30T04:10:42.196Z,1003.36
2023-03-30T04:12:38.249Z,1003.43
2023-03-30T04:13:38.928Z,1003.42
2023-03-30T04:14:38.252Z,1003.39
2023-03-30T04:15:38.142Z,1003.34
2023-03-30T04:16:38.145Z,1003.31
2023-03-30T04:17:38.160Z,1003.28
2023-03-30T04:18:38.127Z,1003.24
2023-03-30T04:19:38.042Z,1003.21
2023-03-30T04:20:38.083Z,1003.27
2023-03-30T04:21:38.054Z,1003.17
2023-03-30T04:22:38.106Z,1003.25
2023-03-30T04:23:38.101Z,1003.25
2023-03-30T04:24:38.077Z,1003.26
2023-03-30T04:25:38.068Z,1003.19
2023-03-30T04:26:38.019Z,1003.19
2023-03-30T04:27:37.982Z,1003.22
2023-03-30T04:28:38.034Z,1003.21
2023-03-30T04:29:37.991Z,1003.22
2023-03-30T04:30:37.985Z,1003.25
2023-03-30T04:31:38.095Z,1003.28
2023-03-30T04:32:37.993Z,1003.25
2023-03-30T04:33:37.984Z,1003.41
2023-03-30T04:34:37.876Z,1003.34
2023-03-30T04:35:37.947Z,1003.45
2023-03-30T04:36:37.936Z,1003.37
2023-03-30T04:37:37.919Z,1003.33
2023-03-30T04:38:37.942Z,1003.36
2023-03-30T04:39:37.911Z,1003.39
2023-03-30T04:40:37.833Z,1003.41
2023-03-30T04:41:37.848Z,1003.39
2023-03-30T04:42:37.814Z,1003.40
2023-03-30T04:43:37.836Z,1003.35
2023-03-30T04:44:37.841Z,1003.40
2023-03-30T04:45:37.842Z,1003.33
2023-03-30T04:46:37.757Z,1003.39
2023-03-30T04:47:37.791Z,1003.35
2023-03-30T04:48:37.765Z,1003.32
2023-03-30T04:49:37.805Z,1003.32
2023-03-30T04:50:37.679Z,1003.37
2023-03-30T04:51:37.714Z,1003.38
2023-03-30T04:52:37.648Z,1003.39
2023-03-30T04:53:37.710Z,1003.41
2023-03-30T04:54:37.630Z,1003.46
2023-03-30T04:55:37.644Z,1003.44
2023-03-30T04:56:37.655Z,1003.45
2023-03-30T04:57:37.562Z,1003.48
2023-03-30T04:58:37.600Z,1003.40
2023-03-30T04:59:37.572Z,1003.43
2023-03-30T05:00:37.573Z,1003.44
2023-03-30T05:01:37.556Z,1003.39
2023-03-30T05:02:37.600Z,1003.41
2023-03-30T05:03:37.608Z,1003.43
2023-03-30T05:04:37.501Z,1003.48
2023-03-30T05:05:37.484Z,1003.44
2023-03-30T05:06:37.470Z,1003.38
2023-03-30T05:07:37.486Z,1003.37
2023-03-30T05:08:39.917Z,1003.40
2023-03-30T05:09:37.439Z,1003.38
2023-03-30T05:10:37.460Z,1003.39
2023-03-30T05:11:37.394Z,1003.33
2023-03-30T05:12:37.388Z,1003.38
2023-03-30T05:13:37.383Z,1003.44
2023-03-30T05:14:37.401Z,1003.44
2023-03-30T05:15:37.363Z,1003.43
2023-03-30T05:16:37.454Z,1003.48
2023-03-30T05:17:37.378Z,1003.44
2023-03-30T05:18:37.317Z,1003.47
2023-03-30T05:19:37.278Z,1003.48
2023-03-30T05:20:37.318Z,1003.40
2023-03-30T05:21:37.283Z,1003.45
2023-03-30T05:22:37.290Z,1003.51
2023-03-30T05:23:37.244Z,1003.52
2023-03-30T05:24:37.227Z,1003.51
2023-03-30T05:25:37.229Z,1003.46
2023-03-30T05:26:37.263Z,1003.49
2023-03-30T05:27:37.165Z,1003.45
2023-03-30T05:28:37.213Z,1003.53
2023-03-30T05:29:37.175Z,1003.48
2023-03-30T05:30:37.158Z,1003.50
2023-03-30T05:31:37.186Z,1003.55
2023-03-30T05:32:37.192Z,1003.58
2023-03-30T05:33:37.151Z,1003.53
2023-03-30T05:34:37.155Z,1003.48
2023-03-30T05:35:37.085Z,1003.57
2023-03-30T05:36:37.108Z,1003.60
2023-03-30T05:37:37.049Z,1003.51
2023-03-30T05:38:37.076Z,1003.56
2023-03-30T05:39:37.029Z,1003.58
2023-03-30T05:40:37.014Z,1003.56
2023-03-30T05:41:37.016Z,1003.59
2023-03-30T05:42:37.008Z,1003.63
2023-03-30T05:43:36.981Z,1003.65
2023-03-30T05:44:36.961Z,1003.67
2023-03-30T05:45:36.998Z,1003.78
2023-03-30T05:46:37.071Z,1003.68
2023-03-30T05:47:36.948Z,1003.73
2023-03-30T05:48:36.932Z,1003.76
2023-03-30T05:49:36.882Z,1003.78
2023-03-30T05:50:36.900Z,1003.70
2023-03-30T05:51:36.861Z,1003.75
2023-03-30T05:52:36.859Z,1003.75
2023-03-30T05:53:36.867Z,1003.76
2023-03-30T05:54:36.850Z,1003.76
2023-03-30T05:55:36.823Z,1003.74
2023-03-30T05:56:36.829Z,1003.78
2023-03-30T05:57:36.839Z,1003.88
2023-03-30T05:58:36.801Z,1003.79
2023-03-30T05:59:36.769Z,1003.79
2023-03-30T06:00:37.023Z,1003.81
2023-03-30T06:01:36.731Z,1003.82
2023-03-30T06:02:36.817Z,1003.82
2023-03-30T06:03:37.031Z,1003.80
2023-03-30T06:04:36.779Z,1003.88
2023-03-30T06:05:36.712Z,1003.90
2023-03-30T06:06:36.688Z,1003.87
2023-03-30T06:07:36.680Z,1003.84
2023-03-30T06:08:36.724Z,1003.84
2023-03-30T06:09:36.641Z,1003.88
2023-03-30T06:10:36.682Z,1003.84
2023-03-30T06:11:36.640Z,1003.81
2023-03-30T06:12:36.644Z,1003.80
2023-03-30T06:13:36.584Z,1003.83
2023-03-30T06:14:36.618Z,1003.84
2023-03-30T06:15:36.577Z,1003.86
2023-03-30T06:16:36.668Z,1003.85
2023-03-30T06:17:36.615Z,1003.83
2023-03-30T06:18:36.613Z,1003.90
2023-03-30T06:19:36.550Z,1003.84
2023-03-30T06:20:36.523Z,1003.80
2023-03-30T06:21:36.535Z,1003.86
2023-03-30T06:22:36.513Z,1003.87
2023-03-30T06:23:36.485Z,1003.89
2023-03-30T06:24:36.473Z,1003.84
2023-03-30T06:25:36.426Z,1003.89
2023-03-30T06:26:36.452Z,1003.84
2023-03-30T06:27:36.417Z,1003.79
2023-03-30T06:28:36.416Z,1003.82
2023-03-30T06:29:36.399Z,1003.85
2023-03-30T06:30:36.396Z,1003.89
2023-03-30T06:31:36.418Z,1003.87
2023-03-30T06:32:36.377Z,1003.91
2023-03-30T06:33:37.490Z,1003.87
2023-03-30T06:34:36.341Z,1003.80
2023-03-30T06:35:36.358Z,1003.88
2023-03-30T06:36:44.964Z,1003.87
2023-03-30T06:37:37.320Z,1003.90
2023-03-30T06:38:36.298Z,1003.82
2023-03-30T06:39:36.293Z,1003.83
2023-03-30T06:40:36.304Z,1003.76
2023-03-30T06:41:36.244Z,1003.76
2023-03-30T06:42:36.225Z,1003.75
2023-03-30T06:43:36.269Z,1003.85
2023-03-30T06:44:36.227Z,1003.81
2023-03-30T06:45:36.290Z,1003.87
2023-03-30T06:46:36.190Z,1003.93
2023-03-30T06:47:36.200Z,1003.98
2023-03-30T06:48:36.144Z,1003.95
2023-03-30T06:49:38.892Z,1003.89
2023-03-30T06:50:36.142Z,1003.96
2023-03-30T06:51:36.116Z,1003.92
2023-03-30T06:52:36.099Z,1003.95
2023-03-30T06:53:36.123Z,1003.91
2023-03-30T06:54:36.114Z,1003.96
2023-03-30T06:55:36.072Z,1003.99
2023-03-30T06:56:36.058Z,1004.02
2023-03-30T06:57:36.053Z,1004.02
2023-03-30T06:58:36.066Z,1004.01
2023-03-30T06:59:36.042Z,1003.96
2023-03-30T07:00:36.023Z,1004.03
2023-03-30T07:01:36.190Z,1004.09
2023-03-30T07:02:36.095Z,1004.10
2023-03-30T07:03:35.965Z,1004.11
2023-03-30T07:04:36.005Z,1004.05
2023-03-30T07:05:35.920Z,1004.09
2023-03-30T07:06:35.974Z,1004.08
2023-03-30T07:07:35.911Z,1004.07
2023-03-30T07:08:35.952Z,1004.07
2023-03-30T07:09:35.942Z,1004.08
2023-03-30T07:10:35.925Z,1004.08
2023-03-30T07:11:35.865Z,1004.03
2023-03-30T07:12:35.901Z,1004.06
2023-03-30T07:13:35.854Z,1004.02
2023-03-30T07:14:35.815Z,1004.05
2023-03-30T07:15:35.819Z,1004.11
2023-03-30T07:16:35.817Z,1004.08
2023-03-30T07:17:35.818Z,1004.02
2023-03-30T07:18:35.788Z,1004.11
2023-03-30T07:19:35.762Z,1004.03
2023-03-30T07:20:35.835Z,1004.06
2023-03-30T07:21:35.746Z,1004.01
2023-03-30T07:22:35.737Z,1004.03
2023-03-30T07:23:35.738Z,1004.05
2023-03-30T07:24:35.728Z,1004.01
2023-03-30T07:25:35.692Z,1004.07
2023-03-30T07:26:35.647Z,1004.11
2023-03-30T07:27:35.681Z,1004.11
2023-03-30T07:28:35.683Z,1004.04
2023-03-30T07:29:35.622Z,1004.09
2023-03-30T07:30:35.668Z,1003.98
2023-03-30T07:31:35.666Z,1003.99
2023-03-30T07:32:35.666Z,1003.96
2023-03-30T07:33:35.736Z,1004.03
2023-03-30T07:34:35.599Z,1004.07
2023-03-30T07:35:35.589Z,1004.02
2023-03-30T07:36:35.515Z,1004.09
2023-03-30T07:37:35.538Z,1004.07
2023-03-30T07:38:35.507Z,1004.07
2023-03-30T07:39:35.546Z,1004.12
2023-03-30T07:40:35.614Z,1004.21
2023-03-30T07:41:35.697Z,1004.19
2023-03-30T07:42:35.728Z,1004.23
2023-03-30T07:43:35.470Z,1004.27
2023-03-30T07:44:35.515Z,1004.26
2023-03-30T07:45:35.589Z,1004.23
2023-03-30T07:46:35.565Z,1004.30
2023-03-30T07:47:36.108Z,1004.29
2023-03-30T07:48:35.986Z,1004.26
2023-03-30T07:49:36.605Z,1004.29
2023-03-30T07:50:35.442Z,1004.31
2023-03-30T07:51:35.392Z,1004.33
2023-03-30T07:52:35.916Z,1004.30
2023-03-30T07:53:35.307Z,1004.31
2023-03-30T07:54:35.326Z,1004.32
2023-03-30T07:55:35.350Z,1004.42
2023-03-30T07:56:35.382Z,1004.30
2023-03-30T07:57:35.257Z,1004.30
2023-03-30T07:58:35.306Z,1004.26
2023-03-30T07:59:35.336Z,1004.31
2023-03-30T08:00:35.423Z,1004.36
2023-03-30T08:01:35.329Z,1004.36
2023-03-30T08:02:35.404Z,1004.32
2023-03-30T08:03:35.480Z,1004.22
2023-03-30T08:04:35.221Z,1004.32
2023-03-30T08:05:35.184Z,1004.23
2023-03-30T08:06:35.194Z,1004.35
2023-03-30T08:07:35.272Z,1004.28
2023-03-30T08:08:35.185Z,1004.34
2023-03-30T08:09:35.117Z,1004.25
2023-03-30T08:10:35.168Z,1004.30
2023-03-30T08:11:35.068Z,1004.33
2023-03-30T08:12:35.092Z,1004.31
2023-03-30T08:13:35.063Z,1004.24
2023-03-30T08:14:35.019Z,1004.36
2023-03-30T08:15:35.051Z,1004.37
2023-03-30T08:16:35.069Z,1004.40
2023-03-30T08:17:35.071Z,1004.42
2023-03-30T08:18:35.017Z,1004.36
2023-03-30T08:19:35.000Z,1004.45
2023-03-30T08:20:35.029Z,1004.43
2023-03-30T08:21:34.949Z,1004.44
2023-03-30T08:22:34.934Z,1004.47
2023-03-30T08:23:34.949Z,1004.48
2023-03-30T08:24:34.944Z,1004.46
2023-03-30T08:25:34.943Z,1004.56
2023-03-30T08:26:34.896Z,1004.59
2023-03-30T08:27:34.896Z,1004.59
2023-03-30T08:28:34.856Z,1004.62
2023-03-30T08:29:34.878Z,1004.73
2023-03-30T08:30:34.863Z,1004.83
2023-03-30T08:31:34.950Z,1004.63
2023-03-30T08:32:34.808Z,1004.56
2023-03-30T08:33:34.857Z,1004.62
2023-03-30T08:34:36.180Z,1004.64
2023-03-30T08:35:34.852Z,1004.69
2023-03-30T08:36:34.774Z,1004.68
2023-03-30T08:37:34.778Z,1004.74
2023-03-30T08:38:34.745Z,1004.68
2023-03-30T08:39:34.745Z,1004.76
2023-03-30T08:40:34.718Z,1004.66
2023-03-30T08:41:34.733Z,1004.77
2023-03-30T08:42:34.690Z,1004.81
2023-03-30T08:43:34.712Z,1004.74
2023-03-30T08:44:34.683Z,1004.63
2023-03-30T08:45:34.665Z,1004.71
2023-03-30T08:46:34.682Z,1004.69
2023-03-30T08:47:34.712Z,1004.73
2023-03-30T08:48:34.676Z,1004.69
2023-03-30T08:49:34.612Z,1004.77
2023-03-30T08:50:34.608Z,1004.84
2023-03-30T08:51:34.572Z,1004.77
2023-03-30T08:52:34.561Z,1004.76
2023-03-30T08:53:34.634Z,1004.72
2023-03-30T08:54:34.550Z,1004.73
2023-03-30T08:55:34.523Z,1004.68
2023-03-30T08:56:34.530Z,1004.67
2023-03-30T08:57:34.611Z,1004.65
2023-03-30T08:58:34.528Z,1004.64
2023-03-30T08:59:34.482Z,1004.58
2023-03-30T09:00:34.433Z,1004.61
2023-03-30T09:01:34.461Z,1004.57
2023-03-30T09:02:36.817Z,1004.60
2023-03-30T09:03:34.405Z,1004.62
2023-03-30T09:04:34.413Z,1004.59
2023-03-30T09:05:34.435Z,1004.61
2023-03-30T09:06:34.379Z,1004.55
2023-03-30T09:07:34.496Z,1004.59
2023-03-30T09:08:34.522Z,1004.62
2023-03-30T09:09:34.394Z,1004.67
2023-03-30T09:10:34.354Z,1004.67
2023-03-30T09:11:34.369Z,1004.77
2023-03-30T09:12:34.310Z,1004.82
2023-03-30T09:13:34.332Z,1004.81
2023-03-30T09:14:34.267Z,1004.83
2023-03-30T09:15:34.317Z,1004.82
2023-03-30T09:16:34.281Z,1004.85
2023-03-30T09:17:34.252Z,1004.79
2023-03-30T09:18:34.482Z,1004.75
2023-03-30T09:19:34.283Z,1004.91
2023-03-30T09:20:34.178Z,1005.08
2023-03-30T09:21:34.233Z,1005.27
2023-03-30T09:22:34.221Z,1005.37
2023-03-30T09:23:34.199Z,1005.47
2023-03-30T09:24:34.137Z,1005.35
2023-03-30T09:25:34.166Z,1005.44
2023-03-30T09:26:34.141Z,1005.37
2023-03-30T09:27:34.241Z,1005.49
2023-03-30T09:28:35.018Z,1005.49
2023-03-30T09:29:34.093Z,1005.48
2023-03-30T09:30:34.097Z,1005.51
2023-03-30T09:31:34.095Z,1005.57
2023-03-30T09:32:34.148Z,1005.54
2023-03-30T09:33:34.031Z,1005.58
2023-03-30T09:34:34.027Z,1005.61
2023-03-30T09:35:34.114Z,1005.65
2023-03-30T09:36:33.999Z,1005.69
2023-03-30T09:37:33.973Z,1005.74
2023-03-30T09:38:33.969Z,1005.72
2023-03-30T09:39:34.087Z,1005.73
2023-03-30T09:40:34.077Z,1005.79
2023-03-30T09:41:33.948Z,1005.91
2023-03-30T09:42:34.094Z,1005.97
2023-03-30T09:43:34.147Z,1006.02
2023-03-30T09:44:34.054Z,1006.00
2023-03-30T09:45:35.540Z,1005.94
2023-03-30T09:46:33.906Z,1006.06
2023-03-30T09:47:33.932Z,1006.09
2023-03-30T09:48:33.898Z,1006.12
2023-03-30T09:49:33.878Z,1006.06
2023-03-30T09:50:34.601Z,1006.07
2023-03-30T09:51:33.821Z,1006.10
2023-03-30T09:52:33.797Z,1006.12
2023-03-30T09:53:33.791Z,1006.21
2023-03-30T09:54:33.759Z,1006.17
2023-03-30T09:55:33.901Z,1006.19
2023-03-30T09:56:33.766Z,1006.24
2023-03-30T09:57:33.856Z,1006.23
2023-03-30T09:58:33.719Z,1006.14
2023-03-30T09:59:33.728Z,1006.15
2023-03-30T10:00:33.688Z,1006.21
2023-03-30T10:01:33.733Z,1006.26
2023-03-30T10:02:33.933Z,1006.21
2023-03-30T10:03:33.865Z,1006.21
2023-03-30T10:04:33.690Z,1006.17
2023-03-30T10:05:33.643Z,1006.07
2023-03-30T10:06:33.604Z,1006.03
2023-03-30T10:07:33.627Z,1005.98
2023-03-30T10:08:33.572Z,1005.91
2023-03-30T10:09:33.572Z,1005.91
2023-03-30T10:10:33.717Z,1005.95
2023-03-30T10:11:33.529Z,1005.97
2023-03-30T10:12:33.525Z,1005.96
2023-03-30T10:13:33.536Z,1006.01
2023-03-30T10:14:33.529Z,1006.04
2023-03-30T10:15:33.551Z,1006.06
2023-03-30T10:16:33.589Z,1006.10
2023-03-30T10:17:33.514Z,1006.10
2023-03-30T10:18:33.488Z,1005.98
2023-03-30T10:19:36.187Z,1005.95
2023-03-30T10:20:33.425Z,1005.88
2023-03-30T10:21:33.446Z,1005.83
2023-03-30T10:22:33.403Z,1005.81
2023-03-30T10:23:33.474Z,1005.73
2023-03-30T10:24:33.389Z,1005.64
2023-03-30T10:25:36.459Z,1005.70
2023-03-30T10:26:33.398Z,1005.80
2023-03-30T10:27:33.330Z,1005.84
2023-03-30T10:28:33.329Z,1005.81
2023-03-30T10:29:33.477Z,1005.91
2023-03-30T10:30:33.341Z,1005.90
2023-03-30T10:31:33.273Z,1006.00
2023-03-30T10:32:33.288Z,1006.07
2023-03-30T10:33:33.306Z,1006.19
2023-03-30T10:34:33.247Z,1006.09
2023-03-30T10:35:33.256Z,1006.12
2023-03-30T10:36:33.229Z,1006.12
2023-03-30T10:37:33.355Z,1006.07
2023-03-30T10:38:34.563Z,1006.07
2023-03-30T10:39:43.383Z,1006.02
2023-03-30T10:40:33.279Z,1005.97
2023-03-30T10:41:33.170Z,1006.07
2023-03-30T10:42:33.616Z,1006.09
2023-03-30T10:43:33.918Z,1006.08
2023-03-30T10:44:34.343Z,1006.08
2023-03-30T10:45:33.308Z,1006.08
2023-03-30T10:46:33.194Z,1006.07
2023-03-30T10:47:33.147Z,1006.04
2023-03-30T10:48:33.144Z,1006.06
2023-03-30T10:49:33.218Z,1006.04
2023-03-30T10:50:33.196Z,1006.01
2023-03-30T10:51:33.093Z,1005.96
2023-03-30T10:52:33.133Z,1005.94
2023-03-30T10:53:33.073Z,1006.04
2023-03-30T10:54:33.044Z,1006.01
2023-03-30T10:55:33.044Z,1006.02
2023-03-30T10:56:33.087Z,1006.00
2023-03-30T10:57:33.067Z,1005.99
2023-03-30T10:58:33.004Z,1005.99
2023-03-30T10:59:33.076Z,1006.02
2023-03-30T11:00:33.141Z,1006.04
2023-03-30T11:01:33.295Z,1006.03
2023-03-30T11:02:33.064Z,1006.13
2023-03-30T11:03:33.225Z,1006.11
2023-03-30T11:04:32.901Z,1006.03
2023-03-30T11:05:33.158Z,1006.11
2023-03-30T11:06:32.844Z,1006.07
2023-03-30T11:07:32.943Z,1006.10
2023-03-30T11:08:32.857Z,1006.10
2023-03-30T11:09:33.050Z,1006.10
2023-03-30T11:10:32.863Z,1006.06
2023-03-30T11:11:32.837Z,1006.16
2023-03-30T11:12:32.837Z,1006.24
2023-03-30T11:13:32.877Z,1006.20
2023-03-30T11:14:32.743Z,1006.25
2023-03-30T11:15:32.699Z,1006.18
2023-03-30T11:16:32.799Z,1006.20
2023-03-30T11:17:32.852Z,1006.21
2023-03-30T11:18:32.688Z,1006.22
2023-03-30T11:19:32.699Z,1006.20
2023-03-30T11:20:32.664Z,1006.18
2023-03-30T11:21:32.620Z,1006.24
2023-03-30T11:22:33.652Z,1006.15
2023-03-30T11:23:32.653Z,1006.14
2023-03-30T11:24:32.635Z,1006.20
2023-03-30T11:25:32.595Z,1006.24
2023-03-30T11:26:32.574Z,1006.17
2023-03-30T11:27:32.533Z,1006.15
2023-03-30T11:28:33.013Z,1006.15
2023-03-30T11:29:32.558Z,1006.08
2023-03-30T11:30:32.597Z,1006.24
2023-03-30T11:31:32.562Z,1006.17
2023-03-30T11:32:32.541Z,1006.10
2023-03-30T11:33:32.477Z,1006.13
2023-03-30T11:34:32.497Z,1006.15
2023-03-30T11:35:32.473Z,1006.09
2023-03-30T11:36:32.497Z,1006.11
2023-03-30T11:37:32.493Z,1006.09
2023-03-30T11:38:32.466Z,1006.13
2023-03-30T11:39:33.049Z,1006.10
2023-03-30T11:40:32.618Z,1006.03
2023-03-30T11:41:32.358Z,1006.13
2023-03-30T11:42:32.385Z,1006.08
2023-03-30T11:43:32.326Z,1006.01
2023-03-30T11:44:32.403Z,1006.03
2023-03-30T11:45:32.360Z,1006.03
2023-03-30T11:46:32.336Z,1006.06
2023-03-30T11:47:32.334Z,1006.07
2023-03-30T11:48:32.319Z,1006.11
2023-03-30T11:49:32.661Z,1006.04
2023-03-30T11:50:32.287Z,1006.06
2023-03-30T11:51:32.221Z,1006.14
2023-03-30T11:52:32.254Z,1006.03
2023-03-30T11:53:32.210Z,1006.14
2023-03-30T11:54:32.377Z,1006.04
2023-03-30T11:55:32.213Z,1006.01
2023-03-30T11:56:32.232Z,1005.98
2023-03-30T11:57:32.170Z,1006.04
2023-03-30T11:58:32.161Z,1006.02
2023-03-30T11:59:32.128Z,1006.06
2023-03-30T12:00:32.260Z,1006.00
2023-03-30T12:01:32.128Z,1006.03
2023-03-30T12:02:32.156Z,1006.10
2023-03-30T12:03:32.234Z,1006.03
2023-03-30T12:04:32.131Z,1006.03
2023-03-30T12:05:32.112Z,1005.97
2023-03-30T12:06:32.105Z,1006.06